Time;durP1;ratioP1;P1;durP2;ratioP2;P2;SDS_P1;SDS_P2;PMS_P1;PMS_P2;Temp;Humidity;BMP_temperature;BMP_pressure;BME280_temperature;BME280_humidity;BME280_pressure;Samples;Min_cycle;Max_cycle;Signal;HPM_P1;HPM_P2
2023/11/16 00:02:06;;;;;;;5.20;2.20;;;7.90;99.90;;;-141.84;100.00;114158.53;4984899;28;20294;-71
2023/11/16 00:04:34;;;;;;;3.90;2.60;;;7.90;99.90;;;-141.84;100.00;115490.59;4985265;28;20215;-70
2023/11/16 00:07:06;;;;;;;5.70;2.40;;;7.80;99.90;;;-141.84;100.00;117622.84;4984926;28;20261;-70
2023/11/16 00:09:34;;;;;;;3.37;2.30;;;7.50;99.90;;;-141.84;100.00;118422.72;4985149;28;20235;-69
2023/11/16 00:12:03;;;;;;;5.77;2.43;;;7.60;99.90;;;-141.84;100.00;118956.03;4984710;28;20281;-69
2023/11/16 00:14:32;;;;;;;3.67;2.43;;;7.60;99.90;;;-141.84;100.00;118689.38;4984596;28;20237;-69
2023/11/16 00:17:00;;;;;;;3.77;2.50;;;7.60;99.90;;;-141.84;100.00;118422.72;4983818;28;20302;-69
2023/11/16 00:19:29;;;;;;;5.27;2.50;;;7.60;99.90;;;-141.84;100.00;118156.06;4974491;28;20239;-70
2023/11/16 00:21:57;;;;;;;3.20;2.13;;;7.60;99.90;;;-141.84;100.00;118956.03;4965861;28;20326;-69
2023/11/16 00:24:26;;;;;;;3.93;2.40;;;7.50;99.90;;;-141.84;100.00;118422.72;4984245;28;20266;-69
2023/11/16 00:26:54;;;;;;;6.03;2.40;;;7.50;99.90;;;-141.84;100.00;117622.84;4984372;28;20224;-70
2023/11/16 00:29:22;;;;;;;4.93;2.80;;;7.50;99.90;;;-141.84;100.00;118689.38;4976109;28;20235;-69
2023/11/16 00:31:50;;;;;;;3.30;2.20;;;7.50;99.90;;;-141.84;100.00;119222.75;4983806;28;20212;-69
2023/11/16 00:34:19;;;;;;;6.70;2.60;;;7.40;99.90;;;-141.84;100.00;119224.81;4984674;28;20218;-69
2023/11/16 00:36:49;;;;;;;4.60;2.30;;;7.30;99.90;;;-141.84;100.00;119222.75;4984275;28;20258;-69
2023/11/16 00:39:19;;;;;;;4.00;2.07;;;7.30;99.90;;;-141.84;100.00;118956.03;4976997;28;20309;-69
2023/11/16 00:41:48;;;;;;;4.33;2.27;;;7.30;99.90;;;-141.84;100.00;118956.03;4984284;28;20227;-69
2023/11/16 00:44:19;;;;;;;5.30;2.50;;;7.30;99.90;;;-141.84;100.00;118422.72;4983639;28;20777;-70
2023/11/16 00:46:48;;;;;;;3.33;2.20;;;7.30;99.90;;;-141.84;100.00;117622.84;4983911;28;20235;-69
2023/11/16 00:49:17;;;;;;;2.87;2.10;;;7.30;99.90;;;-141.84;100.00;118689.38;4975817;28;20219;-69
2023/11/16 00:51:46;;;;;;;5.30;2.10;;;7.20;99.90;;;-141.84;100.00;118956.03;4984377;28;20231;-70
2023/11/16 00:54:15;;;;;;;3.07;2.33;;;7.20;99.90;;;-141.84;100.00;119224.81;4984165;28;20270;-69
2023/11/16 00:56:44;;;;;;;2.73;2.30;;;7.10;99.90;;;-141.84;100.00;119224.81;4983380;28;20231;-70
2023/11/16 00:59:13;;;;;;;3.97;2.40;;;7.10;99.90;;;-141.84;100.00;119224.81;4976453;28;20335;-72
2023/11/16 01:01:41;;;;;;;4.83;2.43;;;7.10;99.90;;;-141.84;100.00;119222.75;4984210;28;20298;-70
2023/11/16 01:04:11;;;;;;;3.57;2.40;;;7.10;99.90;;;-141.84;100.00;118156.06;4983866;28;20297;-69
2023/11/16 01:06:40;;;;;;;5.80;2.37;;;7.10;99.90;;;-141.84;100.00;117089.69;4984249;28;20242;-68
2023/11/16 01:09:08;;;;;;;6.33;2.30;;;7.10;99.90;;;-141.84;100.00;117622.84;4975997;28;20227;-69
2023/11/16 01:11:39;;;;;;;5.00;1.90;;;7.10;99.90;;;-141.84;100.00;113359.50;4983270;28;20227;-70
2023/11/16 01:14:08;;;;;;;2.70;1.90;;;7.20;99.90;;;-141.84;100.00;111229.50;4983848;28;20214;-69
2023/11/16 01:16:41;;;;;;;4.03;1.70;;;7.20;99.90;;;-141.84;100.00;113359.50;4984083;28;20203;-70
2023/11/16 01:19:10;;;;;;;5.67;2.30;;;7.20;99.90;;;-141.84;100.00;115224.16;4962397;28;20263;-69
2023/11/16 01:21:41;;;;;;;4.00;1.90;;;7.10;99.90;;;-141.84;100.00;115757.06;4983537;28;20266;-69
2023/11/16 01:24:09;;;;;;;3.60;2.17;;;7.10;99.90;;;-141.84;100.00;116556.59;4965905;28;20737;-70
2023/11/16 01:26:40;;;;;;;4.40;2.10;;;7.10;99.90;;;-141.84;100.00;116556.59;4966467;28;20250;-69
2023/11/16 01:29:10;;;;;;;4.27;2.03;;;7.10;99.90;;;-141.84;100.00;114691.31;4975780;28;20238;-69
2023/11/16 01:31:39;;;;;;;5.10;2.37;;;7.10;99.90;;;-141.84;100.00;114158.53;4983966;28;20745;-69
2023/11/16 01:34:10;;;;;;;5.00;2.13;;;7.10;99.90;;;-141.84;100.00;114424.91;4983095;28;20238;-70
2023/11/16 01:36:38;;;;;;;4.90;1.90;;;7.10;99.90;;;-141.84;100.00;114691.31;4983595;28;20235;-70
2023/11/16 01:39:07;;;;;;;3.43;1.90;;;7.20;99.90;;;-141.84;100.00;112560.63;4975924;28;20230;-69
2023/11/16 01:41:36;;;;;;;2.93;2.00;;;7.20;99.90;;;-141.84;100.00;109632.72;4983445;28;20305;-69
2023/11/16 01:44:06;;;;;;;3.23;2.30;;;7.20;99.90;;;-141.84;100.00;105643.53;4982874;28;20761;-69
2023/11/16 01:46:34;;;;;;;4.37;2.23;;;7.30;99.90;;;-141.84;100.00;103251.88;4983458;28;20657;-70
2023/11/16 01:49:04;;;;;;;3.50;1.90;;;7.40;99.90;;;-141.84;100.00;101658.25;4982863;28;20351;-69
2023/11/16 01:51:35;;;;;;;3.77;2.10;;;7.40;99.90;;;-141.84;100.00;101127.16;4983255;28;20817;-68
2023/11/16 01:54:07;;;;;;;3.47;2.10;;;7.40;99.90;;;-141.84;100.00;92639.44;4983226;28;20234;-69
2023/11/16 01:56:38;;;;;;;3.90;1.87;;;7.50;99.90;;;-141.84;100.00;82847.66;4983313;28;20235;-69
2023/11/16 01:59:12;;;;;;;2.27;1.90;;;7.60;99.90;;;-141.84;100.00;79148.88;4975551;28;20296;-69
2023/11/16 02:01:40;;;;;;;4.40;2.00;;;7.70;99.90;;;-141.84;100.00;80997.84;4983849;28;20285;-69
2023/11/16 02:04:09;;;;;;;4.97;2.27;;;7.80;99.90;;;-141.84;100.00;86020.75;4983724;28;20472;-69
2023/11/16 02:06:40;;;;;;;4.13;2.10;;;7.80;99.90;;;-141.84;100.00;82847.66;4983406;28;20326;-69
2023/11/16 02:09:10;;;;;;;4.47;2.00;;;7.80;99.90;;;-141.84;100.00;82847.66;4978246;28;20231;-69
2023/11/16 02:11:41;;;;;;;4.07;1.73;;;7.90;99.90;;;-141.84;100.00;75981.22;4988784;28;20238;-68
2023/11/16 02:14:11;;;;;;;2.53;1.67;;;7.40;99.90;;;-141.84;100.00;73607.09;4989319;28;20314;-68
2023/11/16 02:16:39;;;;;;;5.77;2.47;;;7.90;99.90;;;-141.84;100.00;65703.56;4989296;28;20286;-69
2023/11/16 02:19:24;;;;;;;2.73;1.90;;;8.00;99.90;;;-141.84;100.00;65966.75;4964050;28;20247;-69
2023/11/16 02:21:55;;;;;;;3.47;2.10;;;8.00;99.90;;;-141.84;100.00;56502.53;4973382;28;20734;-69
2023/11/16 02:24:26;;;;;;;5.23;2.00;;;8.10;99.90;;;-141.84;99.89;52565.75;4980992;28;20240;-69
2023/11/16 02:26:54;;;;;;;3.60;1.90;;;8.10;99.90;;;-141.84;100.00;58866.47;4977847;28;20237;-69
2023/11/16 02:29:24;;;;;;;3.30;1.90;;;8.10;99.90;;;-141.84;100.00;59129.22;4984623;28;20521;-69
2023/11/16 02:31:53;;;;;;;4.63;2.30;;;8.10;99.90;;;-141.84;99.97;51778.88;4991074;28;20203;-68
2023/11/16 02:34:21;;;;;;;4.90;2.20;;;8.10;99.90;;;-141.84;97.86;39902.41;4990326;28;20407;-69
2023/11/16 02:36:49;;;;;;;3.93;2.17;;;8.10;99.90;;;-141.84;98.43;41825.19;4991659;28;20226;-69
2023/11/16 02:39:18;;;;;;;2.93;1.67;;;8.20;99.90;;;-141.84;98.07;46275.03;4982751;28;20236;-69
2023/11/16 02:41:47;;;;;;;3.93;2.03;;;8.20;99.90;;;-141.84;96.94;34376.41;4991722;28;20380;-69
2023/11/16 02:44:18;;;;;;;4.97;2.10;;;8.20;99.90;;;-141.84;98.81;43918.63;4990485;28;20277;-70
2023/11/16 02:46:47;;;;;;;4.13;2.30;;;8.10;99.90;;;-141.84;99.68;48632.88;4990409;28;20655;-69
2023/11/16 02:49:15;;;;;;;4.47;1.97;;;8.10;99.90;;;-141.84;98.04;43656.88;4983103;28;20642;-69
2023/11/16 02:51:43;;;;;;;3.07;1.90;;;8.10;99.90;;;-141.84;94.83;26390.00;4991429;28;20796;-69
2023/11/16 02:54:11;;;;;;;4.53;2.00;;;8.20;99.90;;;-141.84;96.61;32149.41;4991935;28;20251;-68
2023/11/16 02:56:39;;;;;;;5.23;1.77;;;8.10;99.90;;;-141.84;96.99;34133.66;4991744;28;20222;-69
2023/11/16 02:59:09;;;;;;;3.27;1.90;;;8.20;99.90;;;-141.84;95.34;28424.28;4983503;28;20246;-69
2023/11/16 03:01:37;;;;;;;3.30;1.80;;;8.20;99.90;;;-141.84;96.65;34064.31;4990047;28;20722;-69
2023/11/16 03:04:06;;;;;;;2.33;1.90;;;8.10;99.90;;;-141.84;95.51;29815.69;4989189;28;20726;-69
2023/11/16 03:06:34;;;;;;;5.53;2.10;;;8.20;99.90;;;-141.84;93.72;24666.06;4986911;28;20781;-70
2023/11/16 03:09:04;;;;;;;4.90;1.63;;;8.20;99.90;;;-141.84;93.63;23359.88;4986725;28;20305;-70
2023/11/16 03:11:35;;;;;;;4.20;1.57;;;8.20;99.90;;;-141.84;94.91;26054.09;4985728;28;20699;-69
2023/11/16 03:14:03;;;;;;;3.27;1.83;;;8.30;99.90;;;-141.84;94.63;26481.59;4985988;28;20294;-69
2023/11/16 03:16:39;;;;;;;2.50;1.60;;;8.30;99.90;;;-141.84;93.74;23730.13;4986160;28;20258;-69
2023/11/16 03:19:09;;;;;;;4.50;1.83;;;8.30;99.90;;;-141.84;92.12;21582.38;4969749;28;20705;-69
2023/11/16 03:21:37;;;;;;;3.93;2.10;;;8.40;99.90;;;-141.84;93.85;23689.44;4985367;28;20236;-69
2023/11/16 03:24:06;;;;;;;4.90;2.10;;;8.40;99.90;;;-141.84;91.97;21598.66;4985593;28;20601;-69
2023/11/16 03:26:35;;;;;;;3.40;2.03;;;8.40;99.90;;;-141.84;92.48;21736.94;4984843;28;20227;-61
2023/11/16 03:29:04;;;;;;;3.60;1.80;;;8.40;99.90;;;-141.84;92.42;22147.69;4984354;28;20302;-60
2023/11/16 03:31:35;;;;;;;4.47;2.10;;;8.50;99.90;;;-141.84;90.73;20598.41;4985060;28;20211;-61
2023/11/16 03:34:05;;;;;;;3.43;2.00;;;8.50;99.90;;;-141.84;91.66;21037.50;4985009;28;20231;-60
2023/11/16 03:36:33;;;;;;;3.97;1.90;;;8.40;99.90;;;-141.84;93.26;22641.88;4984985;28;20242;-60
2023/11/16 03:39:01;;;;;;;4.93;1.90;;;8.30;99.90;;;-141.84;92.37;22125.31;4984981;28;20530;-60
2023/11/16 03:41:29;;;;;;;5.50;2.27;;;8.30;99.90;;;-141.84;92.15;21867.06;4980207;28;20255;-60
2023/11/16 03:43:58;;;;;;;4.60;2.00;;;8.30;99.90;;;-141.84;92.48;22123.28;4985301;28;20247;-61
2023/11/16 03:46:26;;;;;;;4.53;2.13;;;8.30;99.90;;;-141.84;91.98;21375.00;4985515;28;20314;-61
2023/11/16 03:48:55;;;;;;;4.30;1.77;;;8.40;99.90;;;-141.84;91.14;20761.03;4984580;28;20249;-61
2023/11/16 03:51:30;;;;;;;3.43;1.90;;;8.40;99.90;;;-141.84;89.59;19921.56;4977137;28;20489;-60
2023/11/16 03:53:58;;;;;;;3.33;2.03;;;8.50;99.90;;;-141.84;90.96;20600.44;4985274;28;20293;-60
2023/11/16 03:56:26;;;;;;;2.67;1.90;;;8.50;99.90;;;-141.84;90.96;20736.63;4984672;28;20310;-61
2023/11/16 03:58:54;;;;;;;3.60;1.53;;;8.40;99.90;;;-141.84;91.23;20992.78;4984396;28;20735;-61
2023/11/16 04:01:23;;;;;;;4.77;1.83;;;8.50;99.90;;;-141.84;89.82;20155.28;4977312;28;20318;-60
2023/11/16 04:03:51;;;;;;;4.07;1.80;;;8.50;99.90;;;-141.84;90.36;20291.47;4984489;28;20254;-60
2023/11/16 04:06:22;;;;;;;4.90;2.10;;;8.50;99.90;;;-141.84;90.44;20431.72;4984364;28;20327;-60
2023/11/16 04:08:51;;;;;;;2.53;1.60;;;8.50;99.90;;;-141.84;89.92;20069.94;4983964;28;20261;-59
2023/11/16 04:11:19;;;;;;;6.63;2.10;;;8.50;99.90;;;-141.84;89.76;20171.56;4976508;28;20711;-61
2023/11/16 04:13:47;;;;;;;7.27;2.10;;;8.50;99.90;;;-141.84;88.86;19838.22;4985067;28;20217;-60
2023/11/16 04:16:21;;;;;;;2.83;1.63;;;8.60;99.90;;;-141.84;90.00;20092.28;4985021;28;20691;-59
2023/11/16 04:18:50;;;;;;;3.87;1.83;;;8.50;99.90;;;-141.84;90.23;20299.59;4977028;28;20227;-60
2023/11/16 04:21:19;;;;;;;3.43;1.67;;;8.50;99.90;;;-141.84;89.92;20202.03;4975842;28;20241;-59
2023/11/16 04:23:52;;;;;;;3.87;2.23;;;8.50;99.90;;;-141.84;89.94;20173.59;4984249;28;20243;-61
2023/11/16 04:26:21;;;;;;;2.97;1.60;;;8.40;99.90;;;-141.84;89.27;19905.28;4983986;28;20274;-60
2023/11/16 04:28:51;;;;;;;4.47;1.83;;;8.50;99.90;;;-141.84;87.78;19535.41;4984101;28;20227;-60
2023/11/16 04:31:20;;;;;;;4.57;2.20;;;8.50;99.90;;;-141.84;88.13;19602.47;4976000;28;20226;-60
2023/11/16 04:33:51;;;;;;;6.03;2.03;;;8.60;99.90;;;-141.84;87.97;19624.84;4983954;28;20726;-60
2023/11/16 04:36:23;;;;;;;3.43;1.97;;;8.50;99.90;;;-141.84;86.33;19366.75;4984056;28;20231;-61
2023/11/16 04:38:55;;;;;;;3.67;1.80;;;8.60;99.90;;;-141.84;88.83;19702.06;4983546;28;20235;-59
2023/11/16 04:41:25;;;;;;;3.57;1.80;;;8.60;99.90;;;-141.84;86.46;19342.34;4976620;28;20613;-60
2023/11/16 04:43:55;;;;;;;3.27;1.60;;;8.60;99.90;;;-141.84;86.23;19334.22;4984070;28;20258;-60
2023/11/16 04:46:26;;;;;;;5.70;2.00;;;8.60;99.90;;;-141.84;87.45;19433.81;4984375;28;20239;-61
2023/11/16 04:48:55;;;;;;;3.23;1.80;;;8.60;99.90;;;-141.84;88.04;19557.78;4983821;28;20249;-61
2023/11/16 04:51:24;;;;;;;2.20;1.70;;;8.50;99.90;;;-141.84;86.52;19324.06;4975885;28;20817;-60
2023/11/16 04:53:54;;;;;;;2.50;1.80;;;8.50;99.90;;;-141.84;87.19;19458.19;4983515;28;20670;-59
2023/11/16 04:56:22;;;;;;;4.17;1.90;;;8.50;99.90;;;-141.84;86.48;19378.94;4983428;28;20555;-60
2023/11/16 04:58:50;;;;;;;2.17;1.60;;;8.50;99.90;;;-141.84;87.17;19448.03;4983926;28;20416;-61
2023/11/16 05:01:18;;;;;;;5.23;1.80;;;8.50;99.90;;;-141.84;86.26;19317.97;4976877;28;20291;-62
2023/11/16 05:03:47;;;;;;;2.97;1.60;;;8.50;99.90;;;-141.84;85.72;19287.50;4983745;28;20231;-61
2023/11/16 05:06:15;;;;;;;4.80;1.60;;;8.50;99.90;;;-141.84;86.09;19291.56;4983116;28;20318;-60
2023/11/16 05:08:44;;;;;;;3.93;1.83;;;8.50;99.90;;;-141.84;85.99;19285.47;4983089;28;20714;-60
2023/11/16 05:11:22;;;;;;;4.40;1.77;;;8.60;99.90;;;-141.84;85.38;19240.75;4975485;28;20230;-59
2023/11/16 05:13:50;;;;;;;4.67;1.60;;;8.50;99.90;;;-141.84;86.80;19334.22;4983882;28;20218;-61
2023/11/16 05:16:18;;;;;;;2.67;1.53;;;8.40;99.90;;;-141.84;87.03;19429.75;4983689;28;20245;-60
2023/11/16 05:18:47;;;;;;;2.80;1.60;;;8.40;99.90;;;-141.84;87.03;19401.28;4976175;28;20223;-62
2023/11/16 05:21:15;;;;;;;4.23;1.90;;;8.30;99.90;;;-141.84;86.59;19311.88;4975146;28;20230;-60
2023/11/16 05:23:45;;;;;;;2.90;1.80;;;8.30;99.90;;;-141.84;88.63;19614.66;4983402;28;20738;-60
2023/11/16 05:26:16;;;;;;;2.57;1.70;;;8.30;99.90;;;-141.84;85.94;19330.16;4983228;28;20309;-61
2023/11/16 05:28:45;;;;;;;3.90;1.73;;;8.30;99.90;;;-141.84;87.66;19452.09;4963261;28;20238;-60
2023/11/16 05:31:13;;;;;;;3.37;1.63;;;8.20;99.90;;;-141.84;87.26;19397.22;4956118;28;20260;-61
2023/11/16 05:33:41;;;;;;;3.13;1.77;;;8.30;99.90;;;-141.84;86.95;19409.41;4964231;28;20228;-61
2023/11/16 05:36:12;;;;;;;4.43;1.80;;;8.30;99.90;;;-141.84;84.39;19155.41;4963714;28;20227;-60
2023/11/16 05:38:40;;;;;;;3.90;1.80;;;8.30;99.90;;;-141.84;85.40;19214.34;4972282;28;20223;-61
2023/11/16 05:41:08;;;;;;;5.03;1.70;;;8.30;99.90;;;-141.84;83.91;19141.19;4974164;28;20235;-60
2023/11/16 05:43:39;;;;;;;2.80;1.57;;;8.40;99.90;;;-141.84;85.39;19234.66;4993063;28;20231;-60
2023/11/16 05:46:08;;;;;;;5.90;1.70;;;8.30;99.90;;;-141.84;85.57;19236.69;4983204;28;20239;-60
2023/11/16 05:48:36;;;;;;;4.00;1.50;;;8.30;99.90;;;-141.84;86.08;19269.22;5000371;28;20227;-62
2023/11/16 05:51:05;;;;;;;3.00;1.50;;;8.30;99.90;;;-141.84;85.19;19228.56;4980443;28;20235;-59
2023/11/16 05:53:33;;;;;;;4.90;1.93;;;8.20;99.90;;;-141.84;84.05;19141.19;4982625;28;20245;-60
2023/11/16 05:56:01;;;;;;;4.77;1.73;;;8.30;99.90;;;-141.84;83.52;19126.97;4985509;28;20321;-61
2023/11/16 05:58:29;;;;;;;3.87;1.70;;;8.30;99.90;;;-141.84;83.64;19078.19;4987254;28;20234;-61
2023/11/16 06:00:59;;;;;;;2.00;1.60;;;8.30;99.90;;;-141.84;84.26;19167.59;4999090;28;20314;-60
2023/11/16 06:03:28;;;;;;;3.40;1.80;;;8.30;99.90;;;-141.84;82.42;19088.34;4984781;28;20740;-60
2023/11/16 06:05:58;;;;;;;6.90;1.70;;;8.40;99.90;;;-141.84;82.73;19078.19;4992102;28;20726;-60
2023/11/16 06:08:26;;;;;;;4.00;1.60;;;8.40;99.90;;;-141.84;84.56;19153.38;4983692;28;20654;-60
2023/11/16 06:10:54;;;;;;;5.27;2.00;;;8.30;99.90;;;-141.84;84.23;19153.38;5002738;28;20390;-61
2023/11/16 06:13:23;;;;;;;4.93;2.10;;;8.30;99.90;;;-141.84;85.14;19196.06;4974464;28;20995;-60
2023/11/16 06:15:52;;;;;;;3.33;1.87;;;8.20;99.90;;;-141.84;85.72;19232.63;4986359;28;20699;-60
2023/11/16 06:18:24;;;;;;;2.73;2.10;;;8.20;99.90;;;-141.84;87.20;19383.00;4979385;28;20224;-60
2023/11/16 06:20:53;;;;;;;4.77;1.73;;;8.30;99.90;;;-141.84;83.98;19151.34;4986646;28;20251;-60
2023/11/16 06:23:21;;;;;;;4.23;1.50;;;8.20;99.90;;;-141.84;83.93;19131.03;4979194;28;20644;-60
2023/11/16 06:25:49;;;;;;;4.10;1.80;;;8.30;99.90;;;-141.84;84.01;19114.78;4986298;28;20221;-61
2023/11/16 06:28:17;;;;;;;2.17;1.50;;;8.30;99.90;;;-141.84;81.29;19070.06;4986641;28;20306;-61
2023/11/16 06:30:46;;;;;;;1.80;1.40;;;8.40;99.90;;;-141.84;81.90;19082.25;4986215;28;20657;-61
2023/11/16 06:33:14;;;;;;;4.10;1.73;;;8.40;99.90;;;-141.84;82.26;19057.88;4978717;28;20282;-60
2023/11/16 06:35:44;;;;;;;5.53;1.90;;;8.30;99.90;;;-141.84;82.46;19084.28;4986432;28;20653;-60
2023/11/16 06:38:13;;;;;;;4.50;1.57;;;8.30;99.90;;;-141.84;80.37;19041.63;4986298;28;20636;-62
2023/11/16 06:40:41;;;;;;;3.13;1.73;;;8.40;99.90;;;-141.84;82.04;19057.88;4999469;28;20211;-60
2023/11/16 06:43:10;;;;;;;5.40;1.77;;;8.40;99.90;;;-141.84;83.04;19122.91;4959154;28;20338;-60
2023/11/16 06:45:40;;;;;;;2.90;1.97;;;8.30;99.90;;;-141.84;83.51;19155.41;5005991;28;20235;-61
2023/11/16 06:48:09;;;;;;;1.80;1.33;;;8.30;99.90;;;-141.84;82.94;19102.56;5006177;28;20605;-59
2023/11/16 06:50:38;;;;;;;5.07;1.60;;;8.40;99.90;;;-141.84;83.91;19163.53;4990335;28;20234;-61
2023/11/16 06:53:09;;;;;;;6.70;6.20;;;8.40;99.90;;;-141.84;83.66;19106.66;4980952;28;20230;-61
2023/11/16 06:55:39;;;;;;;3.43;2.03;;;8.30;99.90;;;-141.84;82.55;19114.78;4988670;28;20256;-59
2023/11/16 06:58:08;;;;;;;4.27;1.80;;;8.40;99.90;;;-141.84;81.16;19043.66;4990748;28;20231;-60
2023/11/16 07:00:37;;;;;;;3.13;1.87;;;8.40;99.90;;;-141.84;82.55;19106.66;4985668;28;20277;-60
2023/11/16 07:03:07;;;;;;;6.37;1.87;;;8.40;99.90;;;-141.84;79.77;19037.56;4982336;28;20288;-61
2023/11/16 07:05:36;;;;;;;3.33;1.60;;;8.40;99.90;;;-141.84;79.54;19033.50;4973292;28;20298;-60
2023/11/16 07:08:06;;;;;;;5.07;2.03;;;8.50;99.90;;;-141.84;78.45;19009.09;4968184;28;20266;-60
2023/11/16 07:10:34;;;;;;;2.70;1.60;;;8.50;99.90;;;-141.84;79.85;19011.13;4985848;28;20254;-60
2023/11/16 07:13:03;;;;;;;5.90;2.10;;;8.50;99.90;;;-141.84;80.18;19116.81;4985008;28;20258;-61
2023/11/16 07:15:32;;;;;;;3.40;1.67;;;8.50;99.90;;;-141.84;79.68;19027.41;4985719;28;20327;-61
2023/11/16 07:18:04;;;;;;;5.00;1.77;;;8.60;99.90;;;-141.84;79.40;19041.63;4995774;28;20321;-60
2023/11/16 07:20:35;;;;;;;4.57;1.83;;;8.60;99.90;;;-141.84;79.75;19045.69;4976718;28;20218;-60
2023/11/16 07:23:03;;;;;;;5.13;1.70;;;8.60;99.90;;;-141.84;77.67;19025.38;5004421;28;20217;-61
2023/11/16 07:25:33;;;;;;;3.63;1.93;;;8.70;99.90;;;-141.84;79.01;19035.53;4998787;28;20191;-59
2023/11/16 07:28:01;;;;;;;4.70;1.60;;;8.60;99.90;;;-141.84;77.87;19009.09;4985111;28;20281;-61
2023/11/16 07:30:30;;;;;;;4.60;2.33;;;8.70;99.90;;;-141.84;78.45;19009.09;4985262;28;20740;-61
2023/11/16 07:32:59;;;;;;;5.83;2.00;;;8.60;99.90;;;-141.84;78.04;19033.50;4985187;28;20231;-60
2023/11/16 07:35:33;;;;;;;3.10;1.50;;;8.70;99.90;;;-141.84;76.74;18968.47;4982513;28;20235;-60
2023/11/16 07:38:01;;;;;;;3.77;1.60;;;8.70;99.90;;;-141.84;76.67;19015.19;4997905;28;20227;-61
2023/11/16 07:40:31;;;;;;;4.37;1.83;;;8.70;99.90;;;-141.84;79.60;19035.53;4988507;28;20206;-60
2023/11/16 07:42:59;;;;;;;4.77;1.57;;;8.70;99.90;;;-141.84;78.29;19007.06;4967564;28;20244;-61
2023/11/16 07:45:28;;;;;;;5.23;1.63;;;8.60;99.90;;;-141.84;76.44;19007.06;4958580;28;20243;-60
2023/11/16 07:47:59;;;;;;;4.53;1.80;;;8.80;99.90;;;-141.84;76.14;18988.78;4965945;28;20391;-61
2023/11/16 07:50:31;;;;;;;3.00;1.70;;;8.80;99.90;;;-141.84;76.89;19039.59;4979321;28;20231;-60
2023/11/16 07:53:00;;;;;;;5.23;1.70;;;8.70;99.90;;;-141.84;76.40;19039.59;4988448;28;20206;-61
2023/11/16 07:55:30;;;;;;;3.10;1.67;;;8.80;99.90;;;-141.84;77.01;19021.31;4997582;28;20674;-60
2023/11/16 07:57:59;;;;;;;5.27;1.83;;;8.70;99.90;;;-141.84;77.03;19000.97;4994667;28;20714;-60
2023/11/16 08:00:30;;;;;;;2.67;1.23;;;8.70;99.90;;;-141.84;78.01;19019.28;4984479;28;20235;-61
2023/11/16 08:05:47;;;;;;;5.27;1.57;;;8.80;99.90;;;-141.84;78.30;18998.94;4990586;28;20321;-61
2023/11/16 08:08:18;;;;;;;3.33;1.50;;;8.70;99.90;;;-141.84;78.50;19039.59;4999474;28;20615;-62
2023/11/16 08:10:48;;;;;;;2.63;1.77;;;8.70;99.90;;;-141.84;78.92;19041.63;5002936;28;20218;-61
2023/11/16 08:13:19;;;;;;;3.43;1.63;;;8.70;99.90;;;-141.84;80.21;19076.16;4970554;28;20242;-60
2023/11/16 08:15:52;;;;;;;4.53;1.77;;;8.70;99.90;;;-141.84;78.98;19057.88;4978785;28;20235;-61
2023/11/16 08:18:22;;;;;;;4.80;1.47;;;8.70;99.90;;;-141.84;80.41;19053.81;4983089;28;20230;-61
2023/11/16 08:20:51;;;;;;;3.50;1.63;;;8.70;99.90;;;-141.84;81.15;19076.16;5004003;28;20732;-60
2023/11/16 08:23:20;;;;;;;5.73;2.00;;;8.70;99.90;;;-141.84;80.59;19106.66;4995490;28;20246;-60
2023/11/16 08:25:50;;;;;;;2.33;1.77;;;8.70;99.90;;;-141.84;78.15;19043.66;5004022;28;20210;-61
2023/11/16 08:28:20;;;;;;;4.17;1.73;;;8.80;99.90;;;-141.84;80.37;19090.38;4987684;28;20219;-61
2023/11/16 08:30:53;;;;;;;4.30;1.60;;;8.80;99.90;;;-141.84;77.91;19066.00;4984654;28;20318;-60
2023/11/16 08:33:21;;;;;;;4.20;1.70;;;8.80;99.90;;;-141.84;78.75;19080.22;4977060;28;20239;-61
2023/11/16 08:35:50;;;;;;;2.30;1.30;;;8.80;99.90;;;-141.84;76.98;19011.13;4984462;28;20289;-62
2023/11/16 08:38:18;;;;;;;5.20;2.07;;;8.80;99.90;;;-141.84;79.81;19098.50;4984166;28;20297;-60
2023/11/16 08:40:46;;;;;;;4.33;2.03;;;8.80;99.90;;;-141.84;79.73;19066.00;4983863;28;20749;-60
2023/11/16 08:43:15;;;;;;;4.73;1.70;;;8.80;99.90;;;-141.84;79.66;19100.53;4976299;28;20310;-60
2023/11/16 08:45:45;;;;;;;4.33;1.80;;;8.90;99.90;;;-141.84;79.61;19086.31;4983587;28;20235;-61
2023/11/16 08:48:16;;;;;;;4.67;1.73;;;8.90;99.90;;;-141.84;79.36;19076.16;4984158;28;20237;-61
2023/11/16 08:50:50;;;;;;;6.00;2.40;;;8.80;99.90;;;-141.84;79.83;19088.34;4983501;28;20634;-60
2023/11/16 08:53:21;;;;;;;3.60;1.80;;;8.80;99.90;;;-141.84;80.10;19092.41;4975765;28;20231;-60
2023/11/16 08:55:49;;;;;;;6.93;2.00;;;8.80;99.90;;;-141.84;79.62;19096.47;4984080;28;20211;-61
2023/11/16 08:58:18;;;;;;;4.57;1.67;;;8.80;99.90;;;-141.84;80.37;19088.34;4970001;28;20306;-60
2023/11/16 09:00:48;;;;;;;5.43;1.57;;;8.80;99.90;;;-141.84;78.18;19055.84;4967895;28;20259;-60
2023/11/16 09:03:18;;;;;;;5.17;2.07;;;8.80;99.90;;;-141.84;76.46;19047.72;4976183;28;20231;-61
2023/11/16 09:05:47;;;;;;;4.60;2.07;;;8.90;99.90;;;-141.84;77.00;19047.72;4984109;28;20286;-61
2023/11/16 09:08:19;;;;;;;5.13;1.77;;;9.00;99.90;;;-141.84;78.58;19078.19;4983421;28;20231;-60
2023/11/16 09:10:49;;;;;;;4.90;2.17;;;8.90;99.90;;;-141.84;78.13;19068.03;4983851;28;20250;-61
2023/11/16 09:13:17;;;;;;;5.17;1.67;;;8.90;99.90;;;-141.84;79.19;19072.09;4976282;28;20288;-61
2023/11/16 09:15:49;;;;;;;3.37;1.83;;;8.90;99.90;;;-141.84;77.91;19066.00;4983849;28;20242;-61
2023/11/16 09:18:17;;;;;;;2.97;1.50;;;8.90;99.90;;;-141.84;78.36;19053.81;4983561;28;20227;-60
2023/11/16 09:20:48;;;;;;;4.07;1.80;;;9.00;99.90;;;-141.84;76.60;19051.78;4983847;28;20223;-61
2023/11/16 09:23:17;;;;;;;6.33;1.70;;;9.00;99.90;;;-141.84;76.50;19057.88;4976160;28;20765;-60
2023/11/16 09:25:45;;;;;;;4.30;1.83;;;9.10;99.90;;;-141.84;78.65;19082.25;4983133;28;20672;-60
2023/11/16 09:28:13;;;;;;;5.20;2.10;;;9.10;99.90;;;-141.84;80.74;19143.22;4983304;28;20271;-62
2023/11/16 09:30:43;;;;;;;3.13;1.43;;;9.10;99.90;;;-141.84;78.33;19086.31;4982764;28;20569;-60
2023/11/16 09:33:13;;;;;;;3.50;1.63;;;9.10;99.90;;;-141.84;76.46;19102.56;4975880;28;20237;-61
2023/11/16 09:35:42;;;;;;;4.10;1.50;;;9.20;99.90;;;-141.84;76.42;19070.06;4983182;28;20342;-60
2023/11/16 09:38:10;;;;;;;2.63;1.50;;;9.20;99.90;;;-141.84;76.57;19076.16;4983434;28;20227;-60
2023/11/16 09:40:41;;;;;;;3.27;1.77;;;9.20;99.90;;;-141.84;76.86;19055.84;4983449;28;20212;-60
2023/11/16 09:43:24;;;;;;;3.37;1.83;;;9.30;99.90;;;-141.84;75.08;19072.09;4956021;28;20239;-60
2023/11/16 09:45:54;;;;;;;3.43;1.53;;;9.30;99.90;;;-141.84;76.81;19098.50;4971144;28;20238;-61
2023/11/16 09:48:24;;;;;;;3.20;1.80;;;9.30;99.90;;;-141.84;75.37;19061.94;4983429;28;20233;-60
2023/11/16 09:50:54;;;;;;;4.13;1.70;;;9.40;99.90;;;-141.84;76.47;19051.78;4983191;28;20231;-60
2023/11/16 09:53:26;;;;;;;4.70;1.97;;;9.40;99.90;;;-141.84;74.59;19041.63;4971413;28;20335;-61
2023/11/16 09:55:58;;;;;;;3.20;1.40;;;9.40;99.90;;;-141.84;73.21;19049.75;4963841;28;20247;-61
2023/11/16 09:58:28;;;;;;;3.80;1.53;;;9.50;99.90;;;-141.84;72.02;19102.56;4978958;28;20203;-61
2023/11/16 10:00:58;;;;;;;2.23;1.40;;;9.60;99.90;;;-141.84;71.38;19088.34;4983255;28;20226;-60
2023/11/16 10:03:31;;;;;;;4.07;2.00;;;9.90;99.90;;;-141.84;68.38;19149.31;4975160;28;20325;-60
2023/11/16 10:06:03;;;;;;;3.57;1.70;;;10.20;99.90;;;-141.84;65.20;19163.53;4983452;28;20235;-60
2023/11/16 10:08:33;;;;;;;3.10;1.53;;;10.50;99.90;;;-141.84;64.50;19175.72;4983250;28;20339;-60
2023/11/16 10:11:05;;;;;;;2.63;1.40;;;10.70;99.90;;;-141.84;64.77;19208.25;4982933;28;20226;-60
2023/11/16 10:13:34;;;;;;;3.83;1.60;;;10.90;99.90;;;-141.84;65.28;19167.59;4982984;28;20238;-60
2023/11/16 10:16:06;;;;;;;4.03;1.67;;;10.90;99.90;;;-141.84;66.02;19204.19;4983100;28;20255;-61
2023/11/16 10:18:37;;;;;;;4.10;1.80;;;10.90;99.90;;;-141.84;66.23;19171.66;4982891;28;20234;-59
2023/11/16 10:21:08;;;;;;;4.50;1.70;;;10.80;99.90;;;-141.84;65.59;19155.41;4979735;28;20234;-59
2023/11/16 10:23:36;;;;;;;5.23;1.63;;;10.90;99.90;;;-141.84;67.01;19171.66;4983493;28;20601;-60